Time;durP1;ratioP1;P1;durP2;ratioP2;P2;SDS_P1;SDS_P2;PMS_P1;PMS_P2;Temp;Humidity;BMP_temperature;BMP_pressure;BME280_temperature;BME280_humidity;BME280_pressure;Samples;Min_cycle;Max_cycle;Signal;HPM_P1;HPM_P2
2022/09/30 00:05:35;;;;;;;10.87;4.40;;;9.10;99.90;;;;;;21033544;28;20123;-77
2022/09/30 00:15:36;;;;;;;5.67;3.40;;;8.80;99.90;;;;;;21015389;28;20032;-77
2022/09/30 00:25:37;;;;;;;;;;;8.60;99.90;;;;;;21046350;28;20043;-78
2022/09/30 00:35:38;;;;;;;8.33;3.73;;;8.60;99.90;;;;;;21014896;28;20394;-78
2022/09/30 00:45:42;;;;;;;6.83;3.80;;;8.60;99.90;;;;;;21038603;28;20119;-78
2022/09/30 00:56:16;;;;;;;10.48;4.03;;;8.60;99.90;;;;;;21090613;28;20075;-78
2022/09/30 01:06:19;;;;;;;7.22;4.30;;;8.60;99.90;;;;;;21078113;28;20095;-78
2022/09/30 01:16:32;;;;;;;9.38;4.45;;;8.50;99.90;;;;;;21081888;28;20036;-78
2022/09/30 01:26:35;;;;;;;6.70;4.43;;;8.50;99.90;;;;;;21020260;28;20510;-78
2022/09/30 01:36:43;;;;;;;9.10;4.15;;;8.70;99.90;;;;;;21018827;28;20032;-78
2022/09/30 01:47:07;;;;;;;8.85;4.88;;;8.80;99.90;;;;;;21025936;28;20040;-78
2022/09/30 01:57:42;;;;;;;11.52;5.97;;;8.70;99.90;;;;;;21022575;28;20410;-77
2022/09/30 02:08:04;;;;;;;15.82;6.90;;;8.70;99.90;;;;;;21000049;28;20142;-76
2022/09/30 02:18:19;;;;;;;16.17;7.80;;;8.80;99.90;;;;;;21015453;28;20036;-78
2022/09/30 02:28:25;;;;;;;19.02;8.30;;;8.90;99.90;;;;;;21047767;28;20499;-77
2022/09/30 02:38:36;;;;;;;25.40;8.95;;;9.00;99.90;;;;;;21048659;28;20096;-75
2022/09/30 02:48:48;;;;;;;27.65;11.05;;;9.10;99.90;;;;;;21067898;28;20040;-77
2022/09/30 02:58:50;;;;;;;22.65;9.23;;;9.10;99.90;;;;;;21065605;28;20079;-77
2022/09/30 03:08:52;;;;;;;30.35;11.68;;;9.20;99.90;;;;;;21056831;28;20044;-77
2022/09/30 03:18:58;;;;;;;26.55;10.73;;;9.10;99.90;;;;;;21089270;28;20109;-77
2022/09/30 03:29:13;;;;;;;24.67;10.68;;;9.10;99.90;;;;;;21088373;28;20036;-77
2022/09/30 03:39:28;;;;;;;27.55;9.82;;;9.20;99.90;;;;;;21065931;28;20102;-77
2022/09/30 03:49:38;;;;;;;26.38;9.90;;;9.20;99.90;;;;;;21034676;28;20115;-77
2022/09/30 03:59:39;;;;;;;21.77;10.25;;;9.20;99.90;;;;;;21004485;28;20036;-77
2022/09/30 04:09:40;;;;;;;26.13;10.33;;;9.10;99.90;;;;;;21053598;28;20064;-76
2022/09/30 04:19:40;;;;;;;27.23;9.97;;;9.10;99.90;;;;;;21039293;28;20039;-75
2022/09/30 04:29:41;;;;;;;31.13;10.53;;;9.00;99.90;;;;;;21034348;28;20043;-75
2022/09/30 04:39:43;;;;;;;30.53;10.73;;;9.00;99.90;;;;;;21030376;28;20051;-74
2022/09/30 04:49:43;;;;;;;22.88;9.75;;;9.00;99.90;;;;;;21079768;28;20076;-75
2022/09/30 04:59:44;;;;;;;26.23;10.27;;;9.00;99.90;;;;;;21067716;28;20572;-76
2022/09/30 05:09:45;;;;;;;22.50;9.53;;;9.10;99.90;;;;;;21027185;28;20039;-76
2022/09/30 05:19:46;;;;;;;23.60;8.83;;;9.10;99.90;;;;;;21031006;28;20038;-76
2022/09/30 05:29:47;;;;;;;17.20;7.85;;;9.20;99.90;;;;;;21034389;28;20032;-76
2022/09/30 05:39:48;;;;;;;16.57;6.80;;;9.20;99.90;;;;;;21046396;28;20174;-75
2022/09/30 05:49:48;;;;;;;16.20;7.57;;;9.20;99.90;;;;;;21042383;28;20498;-75
2022/09/30 05:59:49;;;;;;;14.40;6.37;;;9.20;99.90;;;;;;21064254;28;20028;-74
2022/09/30 06:09:50;;;;;;;18.03;8.17;;;9.20;99.90;;;;;;21073405;28;20032;-74
2022/09/30 06:19:51;;;;;;;18.03;7.93;;;9.20;99.90;;;;;;21061017;28;20044;-74
2022/09/30 06:29:52;;;;;;;14.77;6.20;;;9.30;99.90;;;;;;21014162;28;20037;-74
2022/09/30 06:39:52;;;;;;;18.60;7.10;;;9.30;99.90;;;;;;21024051;28;20087;-75
2022/09/30 06:49:57;;;;;;;27.03;10.40;;;9.50;99.90;;;;;;21033901;28;20056;-75
2022/09/30 06:59:58;;;;;;;25.38;12.00;;;9.70;99.90;;;;;;20991535;28;20044;-75
2022/09/30 07:09:59;;;;;;;24.67;11.17;;;10.00;99.90;;;;;;21011199;28;20028;-74
2022/09/30 07:20:00;;;;;;;16.80;3.80;;;10.10;99.90;;;;;;21007274;28;20037;-74
2022/09/30 07:30:01;;;;;;;2.83;1.83;;;10.20;99.90;;;;;;21031179;28;20040;-75
2022/09/30 07:40:05;;;;;;;5.43;1.53;;;10.20;99.90;;;;;;21036521;28;20062;-75
2022/09/30 07:50:09;;;;;;;2.70;1.27;;;10.70;99.90;;;;;;21078212;28;20121;-76
2022/09/30 08:00:10;;;;;;;4.88;3.00;;;11.80;99.90;;;;;;21016505;28;20036;-75
2022/09/30 08:10:12;;;;;;;8.98;4.45;;;12.20;99.90;;;;;;20999907;28;20056;-76
2022/09/30 08:20:13;;;;;;;7.10;3.93;;;12.90;99.90;;;;;;21037243;28;20546;-76
2022/09/30 08:30:14;;;;;;;7.53;3.87;;;12.80;99.90;;;;;;21040713;28;20443;-76
2022/09/30 08:40:19;;;;;;;4.60;3.57;;;12.40;99.90;;;;;;20971409;28;20045;-76
2022/09/30 08:50:35;;;;;;;9.00;3.97;;;12.10;99.90;;;;;;21047588;28;20498;-75
2022/09/30 09:00:35;;;;;;;6.20;3.80;;;12.00;99.90;;;;;;21006452;28;20040;-75
2022/09/30 09:10:49;;;;;;;9.60;5.07;;;12.00;99.90;;;;;;21058568;28;20079;-75
2022/09/30 09:20:58;;;;;;;8.80;4.05;;;11.90;99.90;;;;;;21044016;28;20157;-75
2022/09/30 09:31:00;;;;;;;6.75;3.65;;;11.80;99.90;;;;;;21038420;28;20032;-75
2022/09/30 09:41:13;;;;;;;6.00;3.75;;;12.00;99.90;;;;;;21044656;28;20086;-75
2022/09/30 09:51:35;;;;;;;10.35;4.05;;;11.90;99.90;;;;;;20993398;28;20043;-75
2022/09/30 10:01:39;;;;;;;7.70;3.47;;;12.10;99.90;;;;;;21018644;28;20044;-76
2022/09/30 10:11:40;;;;;;;6.65;3.92;;;12.30;99.90;;;;;;21035263;28;20041;-76
2022/09/30 10:21:41;;;;;;;4.50;2.60;;;12.70;99.90;;;;;;21001763;28;20158;-76
2022/09/30 10:31:43;;;;;;;5.53;3.47;;;13.20;99.90;;;;;;20989293;28;20100;-76
2022/09/30 10:41:44;;;;;;;3.75;2.70;;;13.40;99.90;;;;;;21035956;28;20456;-78
2022/09/30 10:51:45;;;;;;;8.77;3.13;;;13.60;99.90;;;;;;21064499;28;20119;-77
2022/09/30 11:01:51;;;;;;;5.47;2.50;;;13.50;99.90;;;;;;20997706;28;20532;-76
2022/09/30 11:12:01;;;;;;;6.53;3.38;;;13.90;99.90;;;;;;20999401;28;20119;-78
2022/09/30 11:22:27;;;;;;;12.75;6.03;;;14.00;99.90;;;;;;21057118;28;20039;-76
2022/09/30 11:32:39;;;;;;;4.93;3.15;;;13.70;99.90;;;;;;21068411;28;20043;-77
2022/09/30 11:42:47;;;;;;;6.93;2.42;;;13.90;99.90;;;;;;21032747;28;20036;-77
2022/09/30 11:53:03;;;;;;;6.18;3.35;;;14.40;99.90;;;;;;21064175;28;20040;-77
2022/09/30 12:03:29;;;;;;;3.88;2.40;;;14.50;99.90;;;;;;20985512;28;20037;-76
2022/09/30 12:13:46;;;;;;;4.40;2.70;;;14.30;99.90;;;;;;21010843;28;20438;-78
2022/09/30 12:23:58;;;;;;;4.22;2.03;;;14.70;99.90;;;;;;21025710;28;20078;-77
2022/09/30 12:34:25;;;;;;;9.02;2.40;;;14.80;99.90;;;;;;21017055;28;20122;-77
2022/09/30 12:44:42;;;;;;;2.83;2.25;;;15.30;99.90;;;;;;21006235;28;20044;-77
2022/09/30 12:54:52;;;;;;;3.50;1.67;;;15.00;99.90;;;;;;21026617;28;20502;-77
2022/09/30 13:04:53;;;;;;;4.05;1.50;;;14.80;99.90;;;;;;20976661;28;20111;-76
2022/09/30 13:15:28;;;;;;;4.27;1.90;;;15.10;99.90;;;;;;20975367;28;20040;-77
2022/09/30 13:25:52;;;;;;;5.35;2.70;;;15.30;99.90;;;;;;21020129;28;20043;-76
2022/09/30 13:35:58;;;;;;;8.38;2.78;;;14.50;99.90;;;;;;21033504;28;20058;-76
2022/09/30 13:46:11;;;;;;;5.85;2.15;;;14.50;99.90;;;;;;21042586;28;20115;-75
2022/09/30 13:56:21;;;;;;;3.00;1.95;;;14.30;99.90;;;;;;21059058;22;20048;-76
2022/09/30 14:06:58;;;;;;;6.50;2.03;;;14.70;99.90;;;;;;21083589;28;20051;-75
2022/09/30 14:17:18;;;;;;;5.32;2.03;;;15.30;99.90;;;;;;21100261;28;20130;-75
2022/09/30 14:27:40;;;;;;;4.50;1.88;;;15.50;99.90;;;;;;21074170;28;20040;-76
2022/09/30 14:37:53;;;;;;;4.78;1.80;;;14.40;99.90;;;;;;21076171;28;20482;-75
2022/09/30 14:47:58;;;;;;;4.05;2.80;;;14.40;99.90;;;;;;21074897;28;20506;-75
2022/09/30 14:58:18;;;;;;;3.58;2.72;;;14.40;99.90;;;;;;21141640;28;20051;-76
2022/09/30 15:08:20;;;;;;;5.47;3.03;;;14.00;99.90;;;;;;21143693;28;20046;-76
2022/09/30 15:18:30;;;;;;;4.80;2.60;;;13.80;99.90;;;;;;21153197;28;20091;-75
2022/09/30 15:28:33;;;;;;;4.40;2.65;;;13.70;99.90;;;;;;21170425;28;20038;-75
2022/09/30 15:38:36;;;;;;;4.38;2.40;;;13.50;99.90;;;;;;21169484;28;20047;-75
2022/09/30 15:48:43;;;;;;;4.63;2.67;;;13.50;99.90;;;;;;21168819;28;20404;-76
2022/09/30 15:58:54;;;;;;;6.25;2.67;;;13.50;99.90;;;;;;21168071;28;20054;-77
2022/09/30 16:09:00;;;;;;;6.43;3.40;;;13.30;99.90;;;;;;21183496;27;20043;-77
2022/09/30 16:19:02;;;;;;;8.38;3.10;;;13.20;99.90;;;;;;21179106;27;20032;-76
2022/09/30 16:29:03;;;;;;;7.78;3.55;;;13.10;99.90;;;;;;21165765;28;20040;-76
2022/09/30 16:39:04;;;;;;;8.70;5.63;;;12.90;99.90;;;;;;21164979;28;20038;-76
2022/09/30 16:49:16;;;;;;;4.57;3.57;;;12.90;99.90;;;;;;21163677;28;20110;-77
2022/09/30 16:59:17;;;;;;;5.43;3.25;;;12.70;99.90;;;;;;21162766;28;20043;-77
2022/09/30 17:09:19;;;;;;;7.57;4.00;;;12.60;99.90;;;;;;21143597;28;20050;-75
2022/09/30 17:19:20;;;;;;;8.57;5.40;;;12.60;99.90;;;;;;21161591;28;20050;-75
2022/09/30 17:29:20;;;;;;;10.50;4.23;;;12.60;99.90;;;;;;21160708;28;20105;-76
2022/09/30 17:39:21;;;;;;;17.50;7.30;;;12.60;99.90;;;;;;21160690;28;20039;-74
2022/09/30 17:49:23;;;;;;;7.03;2.87;;;12.30;99.90;;;;;;21161119;28;20101;-75
2022/09/30 17:59:26;;;;;;;5.15;3.15;;;12.10;99.90;;;;;;21148761;28;20067;-74
2022/09/30 18:09:28;;;;;;;4.60;2.97;;;12.10;99.90;;;;;;21120115;28;20044;-75
2022/09/30 18:19:28;;;;;;;6.47;3.30;;;11.90;99.90;;;;;;21152539;28;20028;-76
2022/09/30 18:29:29;;;;;;;8.17;3.23;;;11.80;99.90;;;;;;21157457;28;20043;-75
2022/09/30 18:39:30;;;;;;;7.90;3.70;;;11.70;99.90;;;;;;21152237;28;20040;-75
2022/09/30 18:49:31;;;;;;;7.63;3.23;;;11.50;99.90;;;;;;21155384;28;20036;-76
2022/09/30 18:59:32;;;;;;;7.07;4.40;;;11.30;99.90;;;;;;21173179;28;20044;-76
2022/09/30 19:09:32;;;;;;;9.17;5.17;;;11.00;99.90;;;;;;21132959;28;20123;-76
2022/09/30 19:19:39;;;;;;;13.00;4.90;;;10.90;99.90;;;;;;21144210;28;20046;-75
2022/09/30 19:29:40;;;;;;;7.55;4.05;;;10.80;99.90;;;;;;21164446;28;20044;-75
2022/09/30 19:39:41;;;;;;;9.20;4.20;;;10.90;99.90;;;;;;21170005;28;20112;-75
2022/09/30 19:49:51;;;;;;;6.50;3.70;;;10.70;99.90;;;;;;21198596;22;20101;-83
2022/09/30 19:59:52;;;;;;;10.07;4.90;;;10.60;99.90;;;;;;20867675;28;20049;-80
2022/09/30 20:09:53;;;;;;;7.93;4.00;;;10.40;99.90;;;;;;20928357;28;20072;-81
2022/09/30 20:30:13;;;;;;;16.25;5.68;;;9.60;99.90;;;;;;20926917;28;20045;-79
2022/09/30 20:40:14;;;;;;;9.60;4.13;;;9.40;99.90;;;;;;20923844;28;20049;-80
2022/09/30 20:50:33;;;;;;;15.17;7.13;;;9.20;99.90;;;;;;20907646;28;20048;-80
2022/09/30 21:00:38;;;;;;;22.13;8.32;;;8.90;99.90;;;;;;20906659;28;20044;-79
2022/09/30 21:10:39;;;;;;;12.40;5.78;;;8.60;99.90;;;;;;20890456;28;20036;-76
2022/09/30 21:20:40;;;;;;;11.18;6.07;;;8.40;99.90;;;;;;20926498;28;20099;-79
2022/09/30 21:30:41;;;;;;;10.50;6.87;;;8.10;99.90;;;;;;20916236;28;20526;-79
2022/09/30 21:40:43;;;;;;;9.40;5.60;;;8.30;99.90;;;;;;20903044;28;20041;-78
2022/09/30 21:50:44;;;;;;;9.38;5.78;;;8.40;99.90;;;;;;20919708;28;20041;-77
2022/09/30 22:00:45;;;;;;;9.60;6.33;;;8.00;99.90;;;;;;20923275;28;20044;-79
2022/09/30 22:10:47;;;;;;;10.05;5.82;;;8.30;99.90;;;;;;20885528;28;20079;-78
2022/09/30 22:20:48;;;;;;;11.48;6.40;;;8.00;99.90;;;;;;20922055;28;20040;-80
2022/09/30 22:30:48;;;;;;;20.07;9.17;;;7.60;99.90;;;;;;20979616;28;20044;-80
2022/09/30 22:40:58;;;;;;;32.97;8.83;;;7.80;99.90;;;;;;20988821;28;20441;-79
2022/09/30 22:50:59;;;;;;;23.27;10.10;;;8.00;99.90;;;;;;20987035;28;20068;-79
2022/09/30 23:01:00;;;;;;;54.55;11.10;;;8.20;99.90;;;;;;20993096;28;20033;-79
2022/09/30 23:11:01;;;;;;;171.60;13.80;;;8.10;99.90;;;;;;20950974;28;20047;-78
2022/09/30 23:21:09;;;;;;;135.80;13.20;;;8.00;99.90;;;;;;20985635;28;20037;-79
2022/09/30 23:31:13;;;;;;;22.95;8.27;;;7.60;99.90;;;;;;20960138;28;20287;-79
2022/09/30 23:41:13;;;;;;;16.10;6.90;;;7.60;99.90;;;;;;21014855;28;20072;-80
2022/09/30 23:51:14;;;;;;;10.67;5.97;;;7.40;99.90;;;;;;20996653;28;20513;-80
